createdAt,value
2023-03-15T00:00:42.241Z,6.46
2023-03-15T00:01:42.218Z,6.46
2023-03-15T00:02:42.254Z,6.46
2023-03-15T00:03:42.254Z,6.46
2023-03-15T00:04:42.186Z,6.48
2023-03-15T00:05:42.156Z,6.41
2023-03-15T00:06:42.145Z,6.28
2023-03-15T00:07:42.126Z,6.38
2023-03-15T00:08:42.129Z,6.51
2023-03-15T00:09:42.093Z,6.48
2023-03-15T00:10:42.077Z,6.32
2023-03-15T00:11:42.057Z,6.33
2023-03-15T00:12:42.042Z,6.37
2023-03-15T00:13:42.031Z,6.32
2023-03-15T00:14:42.026Z,6.12
2023-03-15T00:15:42.023Z,6.29
2023-03-15T00:16:41.989Z,6.15
2023-03-15T00:17:41.972Z,6.22
2023-03-15T00:18:41.965Z,6.23
2023-03-15T00:19:41.920Z,6.23
2023-03-15T00:20:41.924Z,6.26
2023-03-15T00:21:41.904Z,6.25
2023-03-15T00:22:41.897Z,6.33
2023-03-15T00:23:41.876Z,6.28
2023-03-15T00:24:41.852Z,6.26
2023-03-15T00:25:41.831Z,6.34
2023-03-15T00:26:41.814Z,6.16
2023-03-15T00:27:41.807Z,6.08
2023-03-15T00:28:41.773Z,6.19
2023-03-15T00:29:41.778Z,6.14
2023-03-15T00:30:41.762Z,6.05
2023-03-15T00:31:41.744Z,6.06
2023-03-15T00:32:41.950Z,6.12
2023-03-15T00:33:41.741Z,5.95
2023-03-15T00:34:41.712Z,6.01
2023-03-15T00:35:41.696Z,6.05
2023-03-15T00:36:41.675Z,5.95
2023-03-15T00:37:41.655Z,6.00
2023-03-15T00:38:41.657Z,5.91
2023-03-15T00:39:41.655Z,5.84
2023-03-15T00:40:41.627Z,6.04
2023-03-15T00:41:41.618Z,5.90
2023-03-15T00:42:41.572Z,5.89
2023-03-15T00:43:41.558Z,5.98
2023-03-15T00:44:41.556Z,5.88
2023-03-15T00:45:41.516Z,5.93
2023-03-15T00:46:41.549Z,5.79
2023-03-15T00:47:41.498Z,5.89
2023-03-15T00:48:41.461Z,5.71
2023-03-15T00:49:41.441Z,5.77
2023-03-15T00:50:41.424Z,5.82
2023-03-15T00:51:41.416Z,5.84
2023-03-15T00:52:41.402Z,5.78
2023-03-15T00:53:41.382Z,5.65
2023-03-15T00:54:41.370Z,5.73
2023-03-15T00:55:41.339Z,5.67
2023-03-15T00:56:41.349Z,5.65
2023-03-15T00:57:41.330Z,5.70
2023-03-15T00:58:41.322Z,5.69
2023-03-15T00:59:41.329Z,5.65
2023-03-15T01:00:41.282Z,5.53
2023-03-15T01:01:41.261Z,5.63
2023-03-15T01:02:41.279Z,5.66
2023-03-15T01:03:41.245Z,5.62
2023-03-15T01:04:41.213Z,5.70
2023-03-15T01:05:41.195Z,5.62
2023-03-15T01:06:41.192Z,5.59
2023-03-15T01:07:41.179Z,5.53
2023-03-15T01:09:41.151Z,5.55
2023-03-15T01:10:41.131Z,5.52
2023-03-15T05:32:38.884Z,0.64
2023-03-15T05:33:38.848Z,0.61
2023-03-15T05:34:38.835Z,0.59
2023-03-15T05:35:38.859Z,0.59
2023-03-15T05:36:38.843Z,0.61
2023-03-15T05:37:38.833Z,0.57
2023-03-15T05:38:38.843Z,0.58
2023-03-15T05:39:38.821Z,0.53
2023-03-15T05:40:38.801Z,0.51
2023-03-15T05:41:38.824Z,0.50
2023-03-15T05:42:38.802Z,0.50
2023-03-15T05:43:38.823Z,0.52
2023-03-15T05:44:38.796Z,0.54
2023-03-15T05:45:38.811Z,0.55
2023-03-15T05:46:38.787Z,0.61
2023-03-15T05:47:38.782Z,0.61
2023-03-15T05:48:38.764Z,0.64
2023-03-15T05:49:38.767Z,0.64
2023-03-15T05:50:38.772Z,0.64
2023-03-15T05:51:38.764Z,0.64
2023-03-15T05:52:38.751Z,0.67
2023-03-15T05:53:38.738Z,0.77
2023-03-15T05:54:38.736Z,0.91
2023-03-15T05:55:38.726Z,1.11
2023-03-15T05:56:38.707Z,1.15
2023-03-15T05:57:38.712Z,1.23
2023-03-15T05:58:38.704Z,1.24
2023-03-15T05:59:38.700Z,1.12
2023-03-15T06:00:38.692Z,1.07
2023-03-15T06:01:38.682Z,1.05
2023-03-15T06:02:38.664Z,1.13
2023-03-15T06:03:38.711Z,1.30
2023-03-15T06:04:38.665Z,1.41
2023-03-15T06:05:38.659Z,1.43
2023-03-15T06:06:38.649Z,1.41
2023-03-15T06:07:38.648Z,1.27
2023-03-15T06:08:38.637Z,1.12
2023-03-15T06:09:38.637Z,0.99
2023-03-15T06:10:38.642Z,0.99
2023-03-15T06:11:38.625Z,1.06
2023-03-15T06:12:38.625Z,1.21
2023-03-15T06:13:38.626Z,1.31
2023-03-15T06:14:38.622Z,1.43
2023-03-15T06:15:38.620Z,1.39
2023-03-15T06:16:38.633Z,1.42
2023-03-15T06:17:38.599Z,1.23
2023-03-15T06:18:38.603Z,1.22
2023-03-15T06:19:38.599Z,1.23
2023-03-15T06:20:38.594Z,1.31
2023-03-15T06:21:38.581Z,1.50
2023-03-15T06:22:38.572Z,1.71
2023-03-15T06:23:38.566Z,1.85
2023-03-15T06:24:38.564Z,1.85
2023-03-15T06:25:38.568Z,1.71
2023-03-15T06:26:38.554Z,1.59
2023-03-15T06:29:38.550Z,2.12
2023-03-15T06:34:38.544Z,7.13
2023-03-15T08:28:37.341Z,3.43
2023-03-15T08:29:37.321Z,2.53
2023-03-15T08:30:37.329Z,2.27
2023-03-15T08:32:37.313Z,3.12
2023-03-15T08:34:37.287Z,2.84
2023-03-15T08:35:37.356Z,1.45
2023-03-15T08:36:37.315Z,0.39
2023-03-15T08:38:37.234Z,0.34
2023-03-15T08:39:37.243Z,0.50
2023-03-15T08:40:38.890Z,1.01
2023-03-15T08:41:37.327Z,1.66
2023-03-15T08:42:37.293Z,2.83
2023-03-15T08:43:37.286Z,4.64
2023-03-15T08:45:56.728Z,6.21
2023-03-15T08:46:38.320Z,6.25
2023-03-15T08:47:37.211Z,6.56
2023-03-15T08:48:37.218Z,8.01
2023-03-15T08:49:37.203Z,10.85
2023-03-15T08:50:37.191Z,16.27
2023-03-15T08:51:37.153Z,18.84
2023-03-15T08:52:37.178Z,24.68
2023-03-15T08:53:37.142Z,28.88
2023-03-15T08:54:37.107Z,31.32
2023-03-15T08:55:37.092Z,39.44
2023-03-15T08:56:37.088Z,45.00
2023-03-15T08:57:37.056Z,41.96
2023-03-15T08:58:37.056Z,41.31
2023-03-15T08:59:37.023Z,45.59
2023-03-15T09:00:37.016Z,43.13
2023-03-15T09:01:37.012Z,42.56
2023-03-15T09:02:37.107Z,46.97
2023-03-15T09:03:36.970Z,50.78
2023-03-15T09:04:37.025Z,46.47
2023-03-15T09:05:36.959Z,46.49
2023-03-15T09:06:36.952Z,47.39
2023-03-15T09:07:36.932Z,51.42
2023-03-15T09:08:36.911Z,47.19
2023-03-15T09:09:36.899Z,49.68
2023-03-15T09:10:36.896Z,56.47
2023-03-15T09:11:36.871Z,67.88
2023-03-15T09:12:36.910Z,90.57
2023-03-15T09:13:36.846Z,101.64
2023-03-15T09:14:36.813Z,103.01
2023-03-15T09:15:36.809Z,94.14
2023-03-15T09:16:36.835Z,101.78
2023-03-15T09:17:36.773Z,85.74
2023-03-15T09:18:36.756Z,72.52
2023-03-15T09:19:36.742Z,67.50
2023-03-15T09:20:36.724Z,58.49
2023-03-15T09:21:36.704Z,40.77
2023-03-15T09:22:39.302Z,43.75
2023-03-15T09:23:36.660Z,42.13
2023-03-15T09:24:36.628Z,40.86
2023-03-15T09:25:36.614Z,40.93
2023-03-15T09:26:36.593Z,33.89
2023-03-15T09:27:36.594Z,40.08
2023-03-15T09:28:36.569Z,34.80
2023-03-15T09:29:36.539Z,50.35
2023-03-15T09:30:36.564Z,43.02
2023-03-15T09:31:36.511Z,39.13
2023-03-15T09:32:36.736Z,43.65
2023-03-15T09:33:36.471Z,32.80
2023-03-15T09:34:41.672Z,35.08
2023-03-15T09:35:37.466Z,35.14
2023-03-15T09:36:36.412Z,35.95
2023-03-15T09:37:36.392Z,38.40
2023-03-15T09:38:36.375Z,42.87
2023-03-15T09:39:36.358Z,45.54
2023-03-15T09:40:36.317Z,43.67
2023-03-15T09:41:36.285Z,35.16
2023-03-15T09:42:36.270Z,32.32
2023-03-15T09:43:36.246Z,29.91
2023-03-15T09:44:36.223Z,22.13
2023-03-15T09:45:36.219Z,19.37
2023-03-15T09:46:36.261Z,20.61
2023-03-15T09:47:36.166Z,20.76
2023-03-15T09:48:36.177Z,18.93
2023-03-15T09:49:36.114Z,18.62
2023-03-15T09:50:36.097Z,20.53
2023-03-15T09:51:36.101Z,20.62
2023-03-15T09:52:36.059Z,21.87
2023-03-15T09:53:36.047Z,22.71
2023-03-15T09:54:36.047Z,29.57
2023-03-15T09:55:35.999Z,38.64
2023-03-15T09:56:36.002Z,40.78
2023-03-15T09:57:35.969Z,38.90
2023-03-15T09:58:35.957Z,23.39
2023-03-15T09:59:35.938Z,21.56
2023-03-15T10:00:35.926Z,21.57
2023-03-15T10:01:36.049Z,21.38
2023-03-15T10:02:35.922Z,18.16
2023-03-15T10:03:35.904Z,17.37
2023-03-15T10:04:35.856Z,17.83
2023-03-15T10:05:35.818Z,13.37
2023-03-15T10:06:37.732Z,14.21
2023-03-15T10:07:35.805Z,12.96
2023-03-15T10:08:35.774Z,12.14
2023-03-15T10:09:35.760Z,9.25
2023-03-15T10:10:35.738Z,9.32
2023-03-15T10:11:35.712Z,7.72
2023-03-15T10:12:35.747Z,8.28
2023-03-15T10:13:35.674Z,8.33
2023-03-15T10:14:35.647Z,10.13
2023-03-15T10:15:35.649Z,9.13
2023-03-15T10:16:35.624Z,7.59
2023-03-15T10:17:35.600Z,6.25
2023-03-15T10:18:35.583Z,6.73
2023-03-15T10:19:35.569Z,6.51
2023-03-15T10:20:35.556Z,5.39
2023-03-15T10:21:35.555Z,5.23
2023-03-15T10:22:35.525Z,4.16
2023-03-15T10:23:35.529Z,5.26
2023-03-15T10:24:35.502Z,4.57
2023-03-15T10:25:35.493Z,4.95
2023-03-15T10:26:35.486Z,6.91
2023-03-15T10:27:35.441Z,8.83
2023-03-15T10:28:37.120Z,8.95
2023-03-15T10:29:35.416Z,8.37
2023-03-15T10:30:35.414Z,8.29
2023-03-15T10:31:44.068Z,7.62
2023-03-15T10:32:35.419Z,4.64
2023-03-15T10:33:35.419Z,6.58
2023-03-15T10:34:35.361Z,7.36
2023-03-15T10:35:35.402Z,7.65
2023-03-15T10:36:35.357Z,8.45
2023-03-15T10:37:35.783Z,5.87
2023-03-15T10:38:35.312Z,3.63
2023-03-15T10:39:35.284Z,3.87
2023-03-15T10:40:35.258Z,4.80
2023-03-15T10:41:35.242Z,3.76
2023-03-15T10:42:35.240Z,3.79
2023-03-15T10:43:35.291Z,4.99
2023-03-15T10:44:35.214Z,8.51
2023-03-15T10:45:35.197Z,14.03
2023-03-15T10:46:35.210Z,11.27
2023-03-15T10:47:35.235Z,10.58
2023-03-15T10:48:35.147Z,14.24
2023-03-15T10:49:35.136Z,14.07
2023-03-15T10:50:35.120Z,10.97
2023-03-15T10:51:35.113Z,10.42
2023-03-15T10:52:35.125Z,11.50
2023-03-15T10:53:35.085Z,13.45
2023-03-15T10:54:35.053Z,13.66
2023-03-15T10:55:35.038Z,15.07
2023-03-15T10:56:35.027Z,16.35
2023-03-15T10:57:35.013Z,15.74
2023-03-15T10:58:35.009Z,14.39
2023-03-15T10:59:34.975Z,16.66
2023-03-15T11:00:34.938Z,17.81
2023-03-15T11:01:34.965Z,19.51
2023-03-15T11:02:34.937Z,21.67
2023-03-15T11:03:34.890Z,22.28
2023-03-15T11:04:34.871Z,22.40
2023-03-15T11:05:34.852Z,21.92
2023-03-15T11:06:34.823Z,22.36
2023-03-15T11:07:34.804Z,22.46
2023-03-15T11:08:34.790Z,20.82
2023-03-15T11:09:34.772Z,19.97
2023-03-15T11:10:34.739Z,20.94
2023-03-15T11:11:34.720Z,23.16
2023-03-15T11:12:34.700Z,22.67
2023-03-15T11:13:34.693Z,24.72
2023-03-15T11:14:34.678Z,17.74
2023-03-15T11:15:34.641Z,21.33
2023-03-15T11:16:34.655Z,23.57
2023-03-15T11:17:34.601Z,18.96
2023-03-15T11:18:34.584Z,17.23
2023-03-15T11:19:34.590Z,18.32
2023-03-15T11:20:34.552Z,18.45
2023-03-15T11:21:34.555Z,17.54
2023-03-15T11:22:34.507Z,18.72
2023-03-15T11:23:34.491Z,20.64
2023-03-15T11:24:34.517Z,23.02
2023-03-15T11:25:34.446Z,24.36
2023-03-15T11:26:34.410Z,28.01
2023-03-15T11:27:34.395Z,31.25
2023-03-15T11:28:34.363Z,36.18
2023-03-15T11:29:34.364Z,40.07
2023-03-15T11:30:34.333Z,45.10
2023-03-15T11:31:34.403Z,48.71
2023-03-15T11:32:34.325Z,53.30
2023-03-15T11:33:34.240Z,59.55
2023-03-15T11:34:34.239Z,65.71
2023-03-15T11:35:34.217Z,69.86
2023-03-15T11:36:34.163Z,75.56
2023-03-15T11:37:34.142Z,81.99
2023-03-15T11:38:34.120Z,89.81
2023-03-15T11:39:34.102Z,94.19
2023-03-15T11:40:34.080Z,101.25
2023-03-15T11:41:34.056Z,109.52
2023-03-15T11:42:34.012Z,117.42
2023-03-15T11:43:33.990Z,117.86
2023-03-15T11:44:33.985Z,119.89
2023-03-15T11:45:34.002Z,126.25
2023-03-15T11:46:33.916Z,139.94
2023-03-15T11:47:33.903Z,159.83
2023-03-15T11:48:33.871Z,163.99
2023-03-15T11:49:33.852Z,172.06
2023-03-15T11:50:33.817Z,178.11
2023-03-15T11:51:33.804Z,184.89
2023-03-15T11:52:33.764Z,185.13
2023-03-15T11:53:33.728Z,185.74
2023-03-15T11:54:33.702Z,188.21
2023-03-15T11:55:33.683Z,195.08
2023-03-15T11:56:33.661Z,207.24
2023-03-15T11:57:33.623Z,220.03
2023-03-15T11:58:33.596Z,224.61
2023-03-15T11:59:33.616Z,235.38
2023-03-15T12:00:33.566Z,234.01
2023-03-15T12:01:33.531Z,236.11
2023-03-15T12:02:33.522Z,236.72
2023-03-15T12:03:33.509Z,238.34
2023-03-15T12:04:33.468Z,243.73
2023-03-15T12:05:33.433Z,247.74
2023-03-15T12:06:33.414Z,261.41
2023-03-15T12:07:33.379Z,262.96
2023-03-15T12:08:33.374Z,265.39
2023-03-15T12:09:33.397Z,266.53
2023-03-15T12:10:33.307Z,267.29
2023-03-15T12:11:33.284Z,268.02
2023-03-15T12:12:33.324Z,270.02
2023-03-15T12:13:33.245Z,273.62
2023-03-15T12:14:33.215Z,266.39
2023-03-15T12:15:33.208Z,266.08
2023-03-15T12:16:33.250Z,248.76
2023-03-15T12:17:33.148Z,232.65
2023-03-15T12:18:33.117Z,227.75
2023-03-15T12:19:33.123Z,220.15
2023-03-15T12:20:33.082Z,212.92
2023-03-15T12:21:33.052Z,200.30
2023-03-15T12:22:33.038Z,191.81
2023-03-15T12:23:33.020Z,187.75
2023-03-15T12:24:32.989Z,180.05
2023-03-15T12:25:35.415Z,176.31
2023-03-15T12:26:33.949Z,174.17
2023-03-15T12:27:32.917Z,165.38
2023-03-15T12:28:32.883Z,174.34
2023-03-15T12:29:32.842Z,180.09
2023-03-15T12:30:32.829Z,187.92
2023-03-15T12:31:32.786Z,195.06
2023-03-15T12:32:32.772Z,195.96
2023-03-15T12:33:32.740Z,200.89
2023-03-15T12:34:32.690Z,201.82
2023-03-15T12:35:32.670Z,205.13
2023-03-15T12:36:32.638Z,214.25
2023-03-15T12:37:32.602Z,218.89
2023-03-15T12:38:32.577Z,219.75
2023-03-15T12:39:32.565Z,224.84
2023-03-15T12:40:32.533Z,222.02
2023-03-15T12:41:32.504Z,214.83
2023-03-15T12:42:32.468Z,217.31
2023-03-15T12:43:32.439Z,218.70
2023-03-15T12:44:32.457Z,200.26
2023-03-15T12:45:32.386Z,195.28
2023-03-15T12:46:32.382Z,178.14
2023-03-15T12:47:32.339Z,176.17
2023-03-15T12:48:32.306Z,161.54
2023-03-15T12:49:32.273Z,139.54
2023-03-15T12:50:32.235Z,128.99
2023-03-15T12:51:32.222Z,113.01
2023-03-15T12:52:32.188Z,111.65
2023-03-15T12:53:32.177Z,106.41
2023-03-15T12:54:32.148Z,94.42
2023-03-15T12:55:32.130Z,83.79
2023-03-15T12:56:32.087Z,85.08
2023-03-15T12:57:32.060Z,72.17
2023-03-15T12:58:32.025Z,70.43
2023-03-15T12:59:31.994Z,60.67
2023-03-15T13:00:31.986Z,55.86
2023-03-15T13:01:32.022Z,50.68
2023-03-15T13:02:42.294Z,52.83
2023-03-15T13:03:32.922Z,52.54
2023-03-15T13:04:31.857Z,43.14
2023-03-15T13:05:31.868Z,48.60
2023-03-15T13:06:31.819Z,41.41
2023-03-15T13:07:36.874Z,35.69
2023-03-15T13:08:32.779Z,33.67
2023-03-15T13:09:31.758Z,32.94
2023-03-15T13:10:31.733Z,33.37
2023-03-15T13:11:31.706Z,30.49
2023-03-15T13:12:31.675Z,29.13
2023-03-15T13:13:31.636Z,29.92
2023-03-15T13:14:31.641Z,31.92
2023-03-15T13:15:31.604Z,29.40
2023-03-15T13:16:31.565Z,25.17
2023-03-15T13:17:31.542Z,23.35
2023-03-15T13:18:31.518Z,23.73
2023-03-15T13:19:31.504Z,23.55
2023-03-15T13:20:31.503Z,24.40
2023-03-15T13:21:31.443Z,25.24
2023-03-15T13:22:31.420Z,24.81
2023-03-15T13:23:31.408Z,23.60
2023-03-15T13:24:31.347Z,22.84
2023-03-15T13:25:31.347Z,24.89
2023-03-15T13:26:31.310Z,22.32
2023-03-15T13:27:31.283Z,21.43
2023-03-15T13:28:31.245Z,22.53
2023-03-15T13:29:31.219Z,25.27
2023-03-15T13:30:31.221Z,24.59
2023-03-15T13:31:31.941Z,24.57
2023-03-15T13:32:31.182Z,26.97
2023-03-15T13:33:31.121Z,28.20
2023-03-15T13:34:31.090Z,29.37
2023-03-15T13:35:31.084Z,32.97
2023-03-15T13:36:31.031Z,36.35
2023-03-15T13:37:31.009Z,43.01
2023-03-15T13:38:30.986Z,45.84
2023-03-15T13:39:30.962Z,46.99
2023-03-15T13:40:30.936Z,55.31
2023-03-15T13:41:30.911Z,56.80
2023-03-15T13:42:30.893Z,60.52
2023-03-15T13:43:30.892Z,60.49
2023-03-15T13:44:30.824Z,61.84
2023-03-15T13:45:30.807Z,60.11
2023-03-15T13:46:30.849Z,63.49
2023-03-15T13:47:30.741Z,67.14
2023-03-15T13:48:30.710Z,36.14
2023-03-15T13:49:30.706Z,2.04
2023-03-15T13:50:30.646Z,0.87
2023-03-15T13:51:30.631Z,0.34
2023-03-15T13:52:30.614Z,0.34
2023-03-15T13:53:46.596Z,0.34
2023-03-15T13:55:30.588Z,0.34
2023-03-15T13:56:37.421Z,0.34
2023-03-15T13:58:30.558Z,0.34
2023-03-15T14:42:29.937Z,27.05
2023-03-15T14:43:29.920Z,30.52
2023-03-15T14:44:29.893Z,26.65
2023-03-15T14:45:29.912Z,33.14
2023-03-15T14:46:29.861Z,44.28
2023-03-15T14:47:29.922Z,53.05
2023-03-15T14:48:29.841Z,54.89
2023-03-15T14:49:29.805Z,55.07
2023-03-15T14:50:29.862Z,56.72
2023-03-15T14:51:29.787Z,58.15
2023-03-15T14:52:29.767Z,57.36
2023-03-15T14:53:29.764Z,67.26
2023-03-15T14:54:29.730Z,74.92
2023-03-15T14:55:29.714Z,79.15
2023-03-15T14:56:29.691Z,79.03
2023-03-15T14:57:29.728Z,80.46
2023-03-15T14:58:29.663Z,89.35
2023-03-15T14:59:29.652Z,103.61
2023-03-15T15:00:29.636Z,97.86
2023-03-15T15:01:29.648Z,109.73
2023-03-15T15:02:29.683Z,113.60
2023-03-15T15:03:29.597Z,136.45
2023-03-15T15:04:29.587Z,163.71
2023-03-15T15:05:29.558Z,136.05
2023-03-15T15:06:29.557Z,121.73
2023-03-15T15:07:29.541Z,115.86
2023-03-15T15:08:29.521Z,115.17
2023-03-15T15:09:29.499Z,128.16
2023-03-15T15:10:29.491Z,131.93
2023-03-15T15:11:29.458Z,138.70
2023-03-15T15:12:29.452Z,137.99
2023-03-15T15:13:29.431Z,138.67
2023-03-15T15:14:29.418Z,110.31
2023-03-15T15:15:30.133Z,79.74
2023-03-15T15:16:29.437Z,70.04
2023-03-15T15:17:29.400Z,72.03
2023-03-15T15:18:29.334Z,66.77
2023-03-15T15:19:29.309Z,79.29
2023-03-15T15:20:29.294Z,99.53
2023-03-15T15:21:31.189Z,106.51
2023-03-15T15:22:29.268Z,168.60
2023-03-15T15:23:29.249Z,323.99
2023-03-15T15:24:29.219Z,363.53
2023-03-15T15:25:29.196Z,282.34
2023-03-15T15:26:29.194Z,294.18
2023-03-15T15:27:29.170Z,438.76
2023-03-15T15:28:36.412Z,576.64
2023-03-15T15:29:30.113Z,581.21
2023-03-15T15:30:29.105Z,590.74
2023-03-15T15:31:29.150Z,204.42
2023-03-15T15:32:29.130Z,117.95
2023-03-15T15:33:29.037Z,96.94
2023-03-15T15:34:29.037Z,101.69
2023-03-15T15:35:29.009Z,87.50
2023-03-15T15:36:31.097Z,66.20
2023-03-15T15:37:29.015Z,52.07
2023-03-15T15:38:28.947Z,53.82
2023-03-15T15:39:28.933Z,52.39
2023-03-15T15:40:28.914Z,53.40
2023-03-15T15:41:28.892Z,56.71
2023-03-15T15:42:28.881Z,47.84
2023-03-15T15:43:28.858Z,42.97
2023-03-15T15:44:28.875Z,35.78
2023-03-15T15:45:28.812Z,31.16
2023-03-15T15:46:28.904Z,34.05
2023-03-15T15:47:28.813Z,37.90
2023-03-15T15:48:28.777Z,37.87
2023-03-15T15:49:28.742Z,36.62
2023-03-15T15:50:28.741Z,31.93
2023-03-15T15:51:28.734Z,28.95
2023-03-15T15:52:28.717Z,26.42
2023-03-15T15:53:28.694Z,25.83
2023-03-15T15:54:28.679Z,26.47
2023-03-15T15:55:28.655Z,27.15
2023-03-15T15:56:28.651Z,28.63
2023-03-15T15:57:28.728Z,32.89
2023-03-15T15:58:28.638Z,37.26
2023-03-15T15:59:28.604Z,30.97
2023-03-15T16:00:28.566Z,29.73
2023-03-15T16:01:28.615Z,30.62
2023-03-15T16:02:28.753Z,30.98
2023-03-15T16:03:28.504Z,34.80
2023-03-15T16:04:28.554Z,42.94
2023-03-15T16:05:28.463Z,47.84
2023-03-15T16:06:28.447Z,61.79
2023-03-15T16:07:28.575Z,68.44
2023-03-15T16:08:28.402Z,76.73
2023-03-15T16:09:28.383Z,85.66
2023-03-15T16:10:28.361Z,92.17
2023-03-15T16:11:28.336Z,104.52
2023-03-15T16:12:28.332Z,118.26
2023-03-15T16:13:28.307Z,132.85
2023-03-15T16:14:28.277Z,144.55
2023-03-15T16:15:28.265Z,161.01
2023-03-15T16:16:28.240Z,175.97
2023-03-15T16:17:28.283Z,196.68
2023-03-15T16:18:28.207Z,203.59
2023-03-15T16:19:28.172Z,225.61
2023-03-15T16:20:28.141Z,236.25
2023-03-15T16:21:28.117Z,257.45
2023-03-15T16:22:28.106Z,277.21
2023-03-15T16:23:28.082Z,296.83
2023-03-15T16:24:28.051Z,323.34
2023-03-15T16:25:28.050Z,340.56
2023-03-15T16:26:28.017Z,341.80
2023-03-15T16:27:27.998Z,350.57
2023-03-15T16:28:27.994Z,365.00
2023-03-15T16:29:27.963Z,399.75
2023-03-15T16:30:27.954Z,475.97
2023-03-15T16:31:27.946Z,517.32
2023-03-15T16:32:42.954Z,532.38
2023-03-15T16:33:28.914Z,533.64
2023-03-15T16:34:27.871Z,540.45
2023-03-15T16:35:27.843Z,557.68
2023-03-15T16:36:27.858Z,599.60
2023-03-15T16:37:27.792Z,679.40
2023-03-15T16:38:27.777Z,688.76
2023-03-15T16:39:27.765Z,725.83
2023-03-15T16:40:27.736Z,742.16
2023-03-15T16:41:27.703Z,763.99
2023-03-15T16:42:27.682Z,759.31
2023-03-15T16:43:27.670Z,808.28
2023-03-15T16:44:27.638Z,802.92
2023-03-15T16:45:27.605Z,834.64
2023-03-15T16:46:27.647Z,876.39
2023-03-15T16:47:27.572Z,906.69
2023-03-15T16:48:27.574Z,900.91
2023-03-15T16:49:27.545Z,930.21
2023-03-15T16:50:27.537Z,943.72
2023-03-15T16:51:27.512Z,977.14
2023-03-15T16:52:27.500Z,989.29
2023-03-15T16:53:27.485Z,1000.00
2023-03-15T16:54:40.251Z,1000.00
2023-03-15T16:55:28.445Z,1000.00
2023-03-15T16:56:27.431Z,1000.00
2023-03-15T16:57:27.398Z,1000.00
2023-03-15T16:58:27.385Z,1000.00
2023-03-15T16:59:27.353Z,1000.00
2023-03-15T17:00:27.351Z,1000.00
2023-03-15T17:01:27.367Z,1000.00
2023-03-15T17:02:27.301Z,1000.00
2023-03-15T17:03:27.291Z,1000.00
2023-03-15T17:04:27.344Z,1000.00
2023-03-15T17:05:27.250Z,1000.00
2023-03-15T17:06:27.230Z,1000.00
2023-03-15T17:07:27.208Z,1000.00
2023-03-15T17:08:27.235Z,1000.00
2023-03-15T17:09:27.172Z,1000.00
2023-03-15T17:10:27.171Z,1000.00
2023-03-15T17:11:27.137Z,1000.00
2023-03-15T17:12:27.131Z,1000.00
2023-03-15T17:13:27.095Z,1000.00
2023-03-15T17:14:27.078Z,1000.00
2023-03-15T17:15:27.069Z,1000.00
2023-03-15T17:16:27.112Z,1000.00
2023-03-15T17:17:27.023Z,1000.00
2023-03-15T17:18:27.009Z,1000.00
2023-03-15T17:19:26.986Z,1000.00
2023-03-15T17:20:26.990Z,1000.00
2023-03-15T17:21:26.949Z,1000.00
2023-03-15T17:22:26.919Z,1000.00
2023-03-15T17:23:26.909Z,1000.00
2023-03-15T17:24:26.904Z,1000.00
2023-03-15T17:25:26.882Z,1000.00
2023-03-15T17:26:26.873Z,1000.00
2023-03-15T17:27:26.852Z,1000.00
2023-03-15T17:28:26.837Z,1000.00
2023-03-15T17:29:26.827Z,1000.00
2023-03-15T17:30:26.808Z,1000.00
2023-03-15T17:31:26.851Z,1000.00
2023-03-15T17:32:26.823Z,1000.00
2023-03-15T17:33:26.770Z,1000.00
2023-03-15T17:34:26.770Z,1000.00
2023-03-15T17:35:26.738Z,1000.00
2023-03-15T17:36:26.729Z,1000.00
2023-03-15T17:37:26.718Z,1000.00
2023-03-15T17:38:26.702Z,1000.00
2023-03-15T17:39:26.703Z,1000.00
2023-03-15T17:40:26.784Z,1000.00
2023-03-15T17:41:26.658Z,1000.00
2023-03-15T17:42:26.653Z,1000.00
2023-03-15T17:43:26.632Z,1000.00
2023-03-15T17:44:26.624Z,1000.00
2023-03-15T17:45:26.606Z,1000.00
2023-03-15T17:46:26.597Z,1000.00
2023-03-15T17:47:26.587Z,1000.00
2023-03-15T17:48:26.575Z,1000.00
2023-03-15T17:49:26.560Z,1000.00
2023-03-15T17:50:26.567Z,1000.00
2023-03-15T17:51:26.533Z,1000.00
2023-03-15T17:52:26.537Z,1000.00
2023-03-15T17:53:26.503Z,1000.00
2023-03-15T17:54:26.505Z,1000.00
2023-03-15T17:55:26.481Z,1000.00
2023-03-15T17:56:26.534Z,1000.00
2023-03-15T17:57:26.473Z,1000.00
2023-03-15T17:58:26.446Z,1000.00
2023-03-15T17:59:26.435Z,1000.00
2023-03-15T18:00:26.421Z,1000.00
2023-03-15T18:01:26.436Z,1000.00
2023-03-15T18:02:26.408Z,1000.00
2023-03-15T18:03:26.414Z,1000.00
2023-03-15T18:04:26.425Z,1000.00
2023-03-15T18:05:26.376Z,1000.00
2023-03-15T18:06:26.376Z,1000.00
2023-03-15T18:07:26.376Z,1000.00
2023-03-15T18:08:26.359Z,997.07
2023-03-15T18:09:26.371Z,1000.00
2023-03-15T18:10:26.348Z,984.99
2023-03-15T18:11:26.325Z,993.39
2023-03-15T18:12:26.317Z,990.11
2023-03-15T18:13:26.311Z,973.57
2023-03-15T18:14:26.301Z,990.39
2023-03-15T18:15:26.284Z,968.83
2023-03-15T18:16:26.336Z,963.50
2023-03-15T18:17:26.266Z,949.08
2023-03-15T18:18:26.253Z,944.54
2023-03-15T18:19:26.237Z,949.25
2023-03-15T18:20:26.238Z,950.96
2023-03-15T18:21:26.221Z,928.12
2023-03-15T18:22:26.199Z,927.00
2023-03-15T18:23:26.172Z,917.06
2023-03-15T18:24:26.182Z,893.03
2023-03-15T18:25:26.157Z,913.94
2023-03-15T18:26:26.142Z,893.32
2023-03-15T18:27:26.116Z,893.07
2023-03-15T18:28:26.109Z,877.33
2023-03-15T18:29:26.082Z,883.17
2023-03-15T18:30:26.084Z,880.44
2023-03-15T18:31:26.123Z,867.10
2023-03-15T18:32:26.071Z,862.40
2023-03-15T18:33:26.010Z,842.84
2023-03-15T18:34:26.007Z,847.68
2023-03-15T18:35:25.999Z,864.11
2023-03-15T18:36:25.954Z,848.25
2023-03-15T18:37:25.955Z,830.80
2023-03-15T18:38:25.946Z,837.41
2023-03-15T18:39:25.899Z,835.70
2023-03-15T18:40:25.891Z,813.48
2023-03-15T18:41:25.856Z,814.17
2023-03-15T18:42:25.860Z,806.73
2023-03-15T18:43:25.831Z,802.42
2023-03-15T18:44:25.815Z,796.07
2023-03-15T18:45:25.799Z,795.46
2023-03-15T18:46:25.808Z,794.17
2023-03-15T18:47:25.754Z,776.90
2023-03-15T18:48:39.666Z,794.46
2023-03-15T18:49:26.707Z,795.21
2023-03-15T18:50:25.694Z,795.15
2023-03-15T18:51:25.700Z,777.63
2023-03-15T18:52:25.637Z,785.57
2023-03-15T18:53:25.603Z,785.90
2023-03-15T18:54:25.592Z,772.91
2023-03-15T18:55:25.576Z,773.70
2023-03-15T18:56:25.565Z,776.54
2023-03-15T18:57:25.540Z,775.67
2023-03-15T18:58:25.515Z,782.53
2023-03-15T18:59:25.983Z,780.77
2023-03-15T19:00:25.505Z,773.45
2023-03-15T19:01:25.571Z,769.48
2023-03-15T19:02:25.490Z,758.24
2023-03-15T19:03:25.441Z,759.94
2023-03-15T19:04:25.421Z,757.54
2023-03-15T19:05:25.409Z,747.64
2023-03-15T19:06:25.384Z,732.49
2023-03-15T19:07:25.372Z,741.84
2023-03-15T19:08:25.360Z,733.27
2023-03-15T19:09:25.341Z,729.91
2023-03-15T19:10:25.337Z,716.96
2023-03-15T19:11:25.314Z,714.75
2023-03-15T19:12:25.287Z,708.50
2023-03-15T19:13:25.262Z,705.07
2023-03-15T19:14:25.249Z,702.77
2023-03-15T19:15:25.237Z,703.96
2023-03-15T19:16:25.232Z,705.78
2023-03-15T19:17:25.189Z,706.75
2023-03-15T19:18:25.173Z,708.34
2023-03-15T19:19:25.160Z,707.64
2023-03-15T19:20:25.148Z,694.05
2023-03-15T19:21:25.117Z,711.18
2023-03-15T19:22:25.099Z,681.71
2023-03-15T19:23:25.084Z,679.76
2023-03-15T19:24:25.068Z,680.98
2023-03-15T19:25:25.052Z,683.42
2023-03-15T19:26:25.040Z,685.35
2023-03-15T19:27:25.037Z,682.23
2023-03-15T19:28:25.001Z,695.81
2023-03-15T19:29:24.987Z,677.38
2023-03-15T19:30:24.968Z,680.57
2023-03-15T19:31:25.003Z,668.57
2023-03-15T19:32:25.051Z,672.62
2023-03-15T19:33:24.920Z,664.58
2023-03-15T19:34:24.906Z,655.59
2023-03-15T19:35:24.912Z,653.66
2023-03-15T19:36:24.880Z,653.29
2023-03-15T19:37:24.851Z,650.95
2023-03-15T19:38:24.858Z,653.88
2023-03-15T19:39:24.814Z,639.01
2023-03-15T19:40:24.804Z,645.23
2023-03-15T19:41:24.800Z,639.38
2023-03-15T19:42:24.766Z,626.15
2023-03-15T19:43:24.758Z,633.16
2023-03-15T19:44:24.741Z,614.16
2023-03-15T19:45:24.724Z,622.96
2023-03-15T19:46:24.767Z,611.56
2023-03-15T19:47:24.696Z,615.28
2023-03-15T19:48:24.685Z,625.74
2023-03-15T19:49:24.670Z,619.77
2023-03-15T19:50:24.648Z,609.65
2023-03-15T19:51:25.122Z,610.50
2023-03-15T19:52:24.600Z,611.04
2023-03-15T19:53:24.609Z,615.74
2023-03-15T19:54:24.582Z,604.51
2023-03-15T19:55:24.573Z,604.41